15°C Temp
11°C Dewpoint
77% Humidity
Temperature
8 KM/H
5 MPH
4 KTS
220°
South West

Wind Speed
Mostly Cloudy
Conditions
Pressure 1026.92 (hPa) - 30.32 (in)
Visibility 6.2 (mi) - 10.0 (km)

Current Conditions
EKCH
Location 55(km)
Metar :EKCH 212150Z AUTO 22004KT 210V290 9999 BKN044/// 15/11 Q1027 NOSIG
Wed 21st August 23:50 pm

Airport
  Metar Aviation API Data Provided by https://www.checkwx.com/ PHP scripts by weather34.com ©2019